Terminal Aerodrome Forecast
Issued by NWS

Home | Current Version | Previous Version | Text Only | Print | Product List | Glossary On
Versions: 1 2 3 4 5 6 7 8 9 10 11 12 13 14 15 16
000
FTAK31 PAJN 230529
TAFAPG
TAF
PAPG 230529Z 2306/2406 00000KT P6SM VCSH SCT035 BKN045
      TEMPO 2306/2310 16007G17KT 6SM -SHRA BR SCT006 BKN025 OVC035
     FM231500 13005KT 6SM -RA BKN015 OVC025
     FM232100 10010G20KT 2SM -RA BR OVC015 WS020/12035KT
     FM240100 12008KT 2SM -SHRA BR BKN007 OVC015 WS020/18050KT
      AMD LTD TO CLD VIS AND WIND 2306/2315=

USA.gov is the U.S. government's official web portal to all federal, state and local government web resources and services.